createdAt,value
2023-05-21T00:00:35.498Z,7.30
2023-05-21T00:04:01.149Z,6.85
2023-05-21T00:07:07.969Z,6.22
2023-05-21T00:10:13.374Z,6.75
2023-05-21T00:13:22.120Z,7.93
2023-05-21T00:16:28.034Z,7.18
2023-05-21T00:22:55.843Z,7.13
2023-05-21T00:26:03.761Z,7.22
2023-05-21T00:29:13.327Z,6.75
2023-05-21T00:32:30.855Z,6.75
2023-05-21T00:35:36.570Z,7.53
2023-05-21T00:38:43.835Z,7.28
2023-05-21T00:41:52.010Z,6.93
2023-05-21T00:45:00.232Z,7.05
2023-05-21T00:48:05.526Z,6.65
2023-05-21T00:51:11.267Z,7.30
2023-05-21T00:54:16.342Z,7.18
2023-05-21T00:57:23.686Z,7.65
2023-05-21T01:00:31.847Z,7.25
2023-05-21T01:03:39.072Z,7.30
2023-05-21T01:06:46.928Z,6.38
2023-05-21T01:09:54.841Z,7.00
2023-05-21T01:13:01.993Z,6.60
2023-05-21T01:16:14.069Z,7.50
2023-05-21T01:19:20.110Z,7.45
2023-05-21T01:22:26.038Z,7.82
2023-05-21T01:25:33.815Z,7.18
2023-05-21T01:28:42.430Z,7.97
2023-05-21T01:31:52.205Z,7.88
2023-05-21T01:34:59.712Z,6.80
2023-05-21T01:38:12.480Z,7.07
2023-05-21T01:41:21.665Z,6.85
2023-05-21T01:44:27.550Z,7.25
2023-05-21T01:47:35.008Z,7.75
2023-05-21T01:50:40.938Z,8.20
2023-05-21T01:53:53.513Z,7.75
2023-05-21T01:57:02.794Z,7.43
2023-05-21T02:00:11.733Z,7.97
2023-05-21T02:03:18.306Z,8.07
2023-05-21T02:06:26.782Z,7.32
2023-05-21T02:09:34.500Z,8.07
2023-05-21T02:12:43.532Z,8.02
2023-05-21T02:15:51.235Z,8.05
2023-05-21T02:18:58.311Z,8.85
2023-05-21T02:22:04.525Z,7.78
2023-05-21T02:25:10.865Z,7.63
2023-05-21T02:28:18.628Z,8.52
2023-05-21T02:31:27.748Z,7.47
2023-05-21T02:34:35.083Z,7.47
2023-05-21T02:37:44.385Z,7.15
2023-05-21T02:40:49.821Z,6.90
2023-05-21T02:44:00.399Z,6.90
2023-05-21T02:47:07.039Z,7.47
2023-05-21T02:50:12.762Z,6.85
2023-05-21T02:53:17.923Z,7.88
2023-05-21T02:56:26.465Z,7.25
2023-05-21T02:59:39.562Z,7.00
2023-05-21T03:02:45.218Z,7.22
2023-05-21T03:05:57.725Z,6.70
2023-05-21T03:09:06.203Z,6.60
2023-05-21T03:12:11.660Z,7.03
2023-05-21T03:15:24.463Z,6.72
2023-05-21T03:18:33.046Z,6.63
2023-05-21T03:21:38.868Z,7.63
2023-05-21T03:24:48.139Z,7.05
2023-05-21T03:27:53.555Z,7.40
2023-05-21T03:31:04.072Z,7.68
2023-05-21T03:34:11.719Z,7.85
2023-05-21T03:37:17.126Z,7.35
2023-05-21T03:40:26.419Z,7.30
2023-05-21T03:43:33.162Z,7.10
2023-05-21T03:46:42.209Z,7.10
2023-05-21T03:49:47.430Z,6.70
2023-05-21T03:52:53.360Z,7.53
2023-05-21T03:55:58.508Z,6.90
2023-05-21T03:59:04.354Z,6.82
2023-05-21T04:02:12.131Z,7.10
2023-05-21T04:05:19.209Z,7.57
2023-05-21T04:08:24.261Z,6.72
2023-05-21T04:11:31.098Z,7.70
2023-05-21T04:14:37.083Z,7.63
2023-05-21T04:17:46.034Z,8.73
2023-05-21T04:20:52.975Z,7.97
2023-05-21T04:23:58.724Z,7.97
2023-05-21T04:27:12.878Z,8.18
2023-05-21T04:30:20.284Z,8.30
2023-05-21T04:33:29.320Z,8.30
2023-05-21T04:36:35.293Z,8.35
2023-05-21T04:39:42.696Z,9.20
2023-05-21T04:42:48.820Z,8.63
2023-05-21T04:45:55.182Z,8.82
2023-05-21T04:49:03.769Z,8.52
2023-05-21T04:52:08.801Z,9.02
2023-05-21T04:55:15.256Z,9.13
2023-05-21T04:58:21.812Z,8.50
2023-05-21T05:01:29.672Z,9.57
2023-05-21T05:04:37.511Z,9.38
2023-05-21T05:07:42.873Z,9.35
2023-05-21T05:10:47.898Z,10.30
2023-05-21T05:13:55.708Z,9.43
2023-05-21T05:17:01.260Z,10.20
2023-05-21T05:20:10.936Z,9.65
2023-05-21T05:23:16.071Z,9.95
2023-05-21T05:26:23.361Z,10.02
2023-05-21T05:29:30.793Z,10.10
2023-05-21T05:32:39.384Z,9.48
2023-05-21T05:35:52.866Z,10.80
2023-05-21T05:39:01.196Z,10.18
2023-05-21T05:42:06.967Z,10.07
2023-05-21T05:45:14.350Z,9.38
2023-05-21T05:48:19.824Z,10.38
2023-05-21T05:51:29.605Z,10.25
2023-05-21T05:54:34.624Z,9.50
2023-05-21T05:57:41.757Z,10.90
2023-05-21T06:00:47.654Z,10.20
2023-05-21T06:03:54.148Z,11.68
2023-05-21T06:07:02.103Z,11.15
2023-05-21T06:10:08.090Z,10.77
2023-05-21T06:13:14.673Z,10.10
2023-05-21T06:16:20.313Z,10.25
2023-05-21T06:19:26.801Z,9.38
2023-05-21T06:22:34.930Z,9.90
2023-05-21T06:25:40.907Z,9.98
2023-05-21T06:28:47.335Z,10.63
2023-05-21T06:31:54.258Z,10.20
2023-05-21T06:34:59.688Z,10.23
2023-05-21T06:38:07.743Z,9.52
2023-05-21T06:41:13.171Z,9.82
2023-05-21T06:44:19.111Z,8.95
2023-05-21T06:47:25.019Z,9.45
2023-05-21T06:50:33.694Z,9.40
2023-05-21T06:53:44.239Z,9.68
2023-05-21T06:56:49.295Z,9.25
2023-05-21T06:59:55.005Z,9.52
2023-05-21T07:03:00.158Z,9.65
2023-05-21T07:06:05.662Z,9.68
2023-05-21T07:09:13.367Z,9.30
2023-05-21T07:12:19.987Z,9.90
2023-05-21T07:15:27.062Z,9.43
2023-05-21T07:18:32.492Z,9.35
2023-05-21T07:21:37.523Z,9.43
2023-05-21T07:24:47.789Z,9.38
2023-05-21T07:27:53.516Z,9.25
2023-05-21T07:31:00.460Z,9.15
2023-05-21T07:34:06.026Z,8.60
2023-05-21T07:37:17.269Z,9.15
2023-05-21T07:40:26.754Z,9.40
2023-05-21T07:43:32.924Z,8.88
2023-05-21T07:46:42.776Z,8.48
2023-05-21T07:49:49.324Z,9.73
2023-05-21T07:52:57.250Z,8.93
2023-05-21T07:56:10.270Z,9.10
2023-05-21T07:59:17.544Z,9.57
2023-05-21T08:02:28.942Z,9.60
2023-05-21T08:05:44.090Z,8.68
2023-05-21T08:08:54.725Z,9.15
2023-05-21T08:12:03.349Z,8.32
2023-05-21T08:15:10.899Z,8.77
2023-05-21T08:18:18.284Z,9.68
2023-05-21T08:21:27.722Z,8.52
2023-05-21T08:24:36.124Z,8.55
2023-05-21T08:27:47.803Z,8.55
2023-05-21T08:30:55.958Z,9.48
2023-05-21T08:34:02.655Z,9.07
2023-05-21T08:37:09.403Z,8.50
2023-05-21T08:40:16.549Z,8.50
2023-05-21T08:43:24.856Z,8.27
2023-05-21T08:46:33.698Z,8.13
2023-05-21T08:49:40.476Z,7.85
2023-05-21T08:52:46.423Z,7.63
2023-05-21T08:55:54.387Z,7.30
2023-05-21T08:59:07.131Z,6.95
2023-05-21T09:02:13.206Z,7.00
2023-05-21T09:05:19.978Z,10.00
2023-05-21T09:08:32.611Z,7.95
2023-05-21T09:11:38.803Z,8.18
2023-05-21T09:14:53.748Z,8.15
2023-05-21T09:18:04.658Z,7.90
2023-05-21T09:21:25.028Z,7.45
2023-05-21T09:24:36.832Z,8.00
2023-05-21T09:27:51.765Z,7.45
2023-05-21T09:31:00.957Z,7.40
2023-05-21T09:34:10.051Z,7.55
2023-05-21T09:37:27.132Z,7.80
2023-05-21T09:40:35.960Z,8.00
2023-05-21T09:43:42.524Z,7.85
2023-05-21T09:46:52.742Z,8.48
2023-05-21T09:50:03.922Z,8.30
2023-05-21T09:53:15.409Z,8.25
2023-05-21T09:56:24.876Z,9.10
2023-05-21T09:59:38.771Z,8.82
2023-05-21T10:02:49.767Z,8.32
2023-05-21T10:06:04.836Z,8.55
2023-05-21T10:09:13.545Z,8.35
2023-05-21T10:12:21.161Z,9.15
2023-05-21T10:15:28.842Z,8.93
2023-05-21T10:18:37.649Z,7.90
2023-05-21T10:21:44.457Z,8.52
2023-05-21T10:24:50.759Z,7.88
2023-05-21T10:28:01.169Z,8.25
2023-05-21T10:31:08.011Z,8.20
2023-05-21T10:34:19.674Z,8.70
2023-05-21T10:37:35.650Z,9.05
2023-05-21T10:40:44.883Z,8.23
2023-05-21T10:43:58.218Z,8.65
2023-05-21T10:47:11.242Z,8.73
2023-05-21T10:50:30.465Z,7.75
2023-05-21T10:53:44.183Z,7.55
2023-05-21T10:56:57.797Z,7.88
2023-05-21T11:00:05.783Z,7.07
2023-05-21T11:03:14.216Z,7.72
2023-05-21T11:06:29.583Z,7.32
2023-05-21T11:09:37.500Z,7.50
2023-05-21T11:13:02.460Z,8.27
2023-05-21T11:16:19.157Z,7.93
2023-05-21T11:19:46.310Z,7.30
2023-05-21T11:22:58.515Z,7.00
2023-05-21T11:26:05.356Z,7.15
2023-05-21T11:29:11.650Z,7.53
2023-05-21T11:32:20.823Z,6.80
2023-05-21T11:35:28.515Z,7.32
2023-05-21T11:38:46.716Z,6.45
2023-05-21T11:42:04.180Z,6.22
2023-05-21T11:45:19.372Z,7.07
2023-05-21T11:48:32.791Z,6.68
2023-05-21T11:51:51.235Z,6.78
2023-05-21T11:55:00.280Z,7.35
2023-05-21T11:58:16.336Z,6.60
2023-05-21T12:01:30.044Z,6.40
2023-05-21T12:04:43.304Z,6.20
2023-05-21T12:07:54.953Z,6.45
2023-05-21T12:11:05.036Z,6.05
2023-05-21T12:14:14.233Z,5.93
2023-05-21T12:17:23.165Z,6.03
2023-05-21T12:20:31.996Z,5.70
2023-05-21T12:23:41.738Z,5.85
2023-05-21T12:26:59.634Z,6.20
2023-05-21T12:30:06.457Z,6.38
2023-05-21T12:33:23.761Z,5.78
2023-05-21T12:36:32.303Z,6.10
2023-05-21T12:39:47.937Z,5.65
2023-05-21T12:43:00.616Z,5.70
2023-05-21T12:46:13.099Z,5.72
2023-05-21T12:49:35.299Z,5.70
2023-05-21T12:52:43.592Z,5.60
2023-05-21T12:55:56.627Z,5.43
2023-05-21T12:59:08.950Z,5.43
2023-05-21T13:02:20.869Z,5.50
2023-05-21T13:05:28.966Z,5.53
2023-05-21T13:08:37.158Z,4.88
2023-05-21T13:11:42.824Z,5.00
2023-05-21T13:14:54.308Z,4.80
2023-05-21T13:18:03.307Z,5.28
2023-05-21T13:21:10.146Z,5.40
2023-05-21T13:24:16.503Z,4.97
2023-05-21T13:27:23.703Z,4.93
2023-05-21T13:30:40.276Z,4.78
2023-05-21T13:33:50.272Z,5.00
2023-05-21T13:36:56.223Z,4.82
2023-05-21T13:40:02.820Z,4.18
2023-05-21T13:43:08.579Z,4.70
2023-05-21T13:46:17.855Z,4.38
2023-05-21T13:49:25.341Z,4.35
2023-05-21T13:52:33.941Z,3.70
2023-05-21T13:55:45.868Z,4.50
2023-05-21T13:58:53.696Z,4.35
2023-05-21T14:02:02.356Z,4.72
2023-05-21T14:05:10.262Z,4.57
2023-05-21T14:08:20.208Z,4.32
2023-05-21T14:11:29.895Z,4.45
2023-05-21T14:14:38.062Z,4.82
2023-05-21T14:17:48.019Z,4.65
2023-05-21T14:20:56.085Z,4.70
2023-05-21T14:24:05.839Z,4.60
2023-05-21T14:27:15.252Z,4.32
2023-05-21T14:30:21.468Z,4.80
2023-05-21T14:33:30.033Z,5.20
2023-05-21T14:36:36.710Z,4.10
2023-05-21T14:39:44.723Z,4.72
2023-05-21T14:42:52.819Z,4.18
2023-05-21T14:45:58.455Z,4.38
2023-05-21T14:49:08.341Z,4.05
2023-05-21T14:52:14.521Z,4.43
2023-05-21T14:55:22.615Z,3.70
2023-05-21T14:58:28.034Z,3.60
2023-05-21T15:01:34.021Z,4.00
2023-05-21T15:04:46.676Z,4.07
2023-05-21T15:07:54.593Z,4.43
2023-05-21T15:11:00.418Z,3.80
2023-05-21T15:14:10.218Z,4.35
2023-05-21T15:17:21.681Z,3.83
2023-05-21T15:20:30.433Z,4.00
2023-05-21T15:23:36.898Z,4.10
2023-05-21T15:26:43.937Z,4.30
2023-05-21T15:29:49.748Z,4.22
2023-05-21T15:33:00.295Z,4.05
2023-05-21T15:36:09.014Z,4.15
2023-05-21T15:39:16.900Z,4.00
2023-05-21T15:42:24.462Z,3.80
2023-05-21T15:45:33.838Z,4.10
2023-05-21T15:48:39.493Z,3.88
2023-05-21T15:51:51.879Z,4.40
2023-05-21T15:54:57.101Z,4.38
2023-05-21T15:58:03.060Z,3.95
2023-05-21T16:01:11.862Z,4.30
2023-05-21T16:04:20.512Z,4.53
2023-05-21T16:07:29.732Z,3.95
2023-05-21T16:10:38.437Z,3.85
2023-05-21T16:13:48.928Z,3.90
2023-05-21T16:16:55.317Z,4.05
2023-05-21T16:20:02.097Z,4.50
2023-05-21T16:23:15.493Z,3.75
2023-05-21T16:26:26.288Z,4.28
2023-05-21T16:29:32.186Z,3.88
2023-05-21T16:32:37.449Z,4.15
2023-05-21T16:35:43.784Z,4.10
2023-05-21T16:38:56.807Z,4.50
2023-05-21T16:42:03.439Z,3.63
2023-05-21T16:45:09.255Z,3.88
2023-05-21T16:48:15.024Z,3.95
2023-05-21T16:51:20.428Z,4.47
2023-05-21T16:54:30.434Z,4.45
2023-05-21T16:57:36.085Z,3.83
2023-05-21T17:00:43.366Z,3.80
2023-05-21T17:03:50.875Z,4.50
2023-05-21T17:06:58.120Z,4.07
2023-05-21T17:10:09.601Z,4.07
2023-05-21T17:13:22.117Z,3.90
2023-05-21T17:16:28.681Z,4.00
2023-05-21T17:19:34.720Z,5.10
2023-05-21T17:22:43.010Z,4.60
2023-05-21T17:25:53.650Z,4.43
2023-05-21T17:28:59.472Z,4.63
2023-05-21T17:32:08.803Z,3.80
2023-05-21T17:35:17.184Z,4.47
2023-05-21T17:38:26.543Z,4.25
2023-05-21T17:41:55.876Z,4.00
2023-05-21T17:45:03.556Z,7.18
2023-05-21T17:48:14.339Z,4.93
2023-05-21T17:51:20.410Z,4.95
2023-05-21T17:54:26.312Z,4.70
2023-05-21T17:57:36.299Z,5.30
2023-05-21T18:00:43.167Z,4.90
2023-05-21T18:03:50.154Z,4.80
2023-05-21T18:06:58.885Z,5.80
2023-05-21T18:10:09.772Z,6.57
2023-05-21T18:13:19.604Z,7.78
2023-05-21T18:16:33.164Z,8.80
2023-05-21T18:19:50.185Z,6.97
2023-05-21T18:22:55.686Z,6.28
2023-05-21T18:26:03.035Z,5.07
2023-05-21T18:29:16.608Z,4.70
2023-05-21T18:32:22.368Z,5.15
2023-05-21T18:35:32.161Z,5.50
2023-05-21T18:38:39.893Z,5.78
2023-05-21T18:41:47.162Z,4.68
2023-05-21T18:44:58.288Z,4.35
2023-05-21T18:48:12.825Z,5.45
2023-05-21T18:51:23.028Z,6.40
2023-05-21T18:54:30.189Z,5.70
2023-05-21T18:57:38.145Z,5.75
2023-05-21T19:00:48.156Z,5.40
2023-05-21T19:03:57.023Z,5.60
2023-05-21T19:07:06.365Z,6.45
2023-05-21T19:10:16.080Z,5.93
2023-05-21T19:13:27.035Z,6.30
2023-05-21T19:16:36.820Z,7.35
2023-05-21T19:19:50.593Z,6.00
2023-05-21T19:22:58.485Z,6.20
2023-05-21T19:26:06.898Z,6.50
2023-05-21T19:29:28.876Z,6.45
2023-05-21T19:32:46.404Z,6.20
2023-05-21T19:35:56.050Z,6.30
2023-05-21T19:39:03.009Z,6.70
2023-05-21T19:42:09.415Z,6.00
2023-05-21T19:45:19.143Z,6.43
2023-05-21T19:48:26.960Z,20.95
2023-05-21T19:51:41.263Z,12.15
2023-05-21T19:54:49.566Z,9.30
2023-05-21T19:57:57.276Z,7.50
2023-05-21T20:01:03.765Z,6.25
2023-05-21T20:04:09.653Z,6.68
2023-05-21T20:07:18.374Z,8.10
2023-05-21T20:10:32.982Z,7.28
2023-05-21T20:13:40.228Z,6.78
2023-05-21T20:16:47.507Z,6.90
2023-05-21T20:19:53.159Z,6.60
2023-05-21T20:23:06.140Z,7.53
2023-05-21T20:26:11.579Z,7.80
2023-05-21T20:29:19.173Z,6.80
2023-05-21T20:32:26.550Z,7.63
2023-05-21T20:35:36.230Z,6.97
2023-05-21T20:38:45.847Z,6.72
2023-05-21T20:41:51.962Z,6.85
2023-05-21T20:44:59.084Z,5.85
2023-05-21T20:48:05.503Z,6.25
2023-05-21T20:51:10.805Z,4.85
2023-05-21T20:54:22.315Z,5.00
2023-05-21T20:57:30.352Z,5.10
2023-05-21T21:00:39.258Z,5.20
2023-05-21T21:03:46.983Z,5.10
2023-05-21T21:06:54.312Z,4.75
2023-05-21T21:10:02.278Z,4.88
2023-05-21T21:13:08.195Z,5.00
2023-05-21T21:16:16.172Z,7.07
2023-05-21T21:19:24.704Z,4.60
2023-05-21T21:22:31.627Z,4.60
2023-05-21T21:25:40.377Z,4.63
2023-05-21T21:28:46.694Z,4.72
2023-05-21T21:31:53.720Z,4.47
2023-05-21T21:34:59.903Z,3.83
2023-05-21T21:38:10.075Z,5.20
2023-05-21T21:41:29.991Z,4.20
2023-05-21T21:44:46.184Z,4.15
2023-05-21T21:47:51.683Z,4.15
2023-05-21T21:50:59.052Z,5.10
2023-05-21T21:54:05.665Z,4.68
2023-05-21T21:57:17.836Z,4.20
2023-05-21T22:00:26.913Z,4.55
2023-05-21T22:03:34.060Z,4.07
2023-05-21T22:06:40.025Z,4.13
2023-05-21T22:09:45.873Z,4.18
2023-05-21T22:12:54.405Z,4.20
2023-05-21T22:16:02.244Z,4.15
2023-05-21T22:19:08.933Z,4.45
2023-05-21T22:22:15.232Z,4.20
2023-05-21T22:25:20.898Z,4.03
2023-05-21T22:28:29.328Z,4.63
2023-05-21T22:31:36.162Z,4.13
2023-05-21T22:34:42.133Z,4.35
2023-05-21T22:37:50.776Z,4.15
2023-05-21T22:40:56.524Z,4.32
2023-05-21T22:44:04.272Z,4.18
2023-05-21T22:47:13.568Z,4.43
2023-05-21T22:50:20.056Z,4.30
2023-05-21T22:53:28.787Z,4.07
2023-05-21T22:56:35.684Z,4.30
2023-05-21T22:59:45.614Z,5.00
2023-05-21T23:02:54.307Z,4.60
2023-05-21T23:06:01.481Z,4.30
2023-05-21T23:09:07.101Z,4.93
2023-05-21T23:12:26.278Z,4.47
2023-05-21T23:15:35.401Z,4.28
2023-05-21T23:18:41.435Z,4.75
2023-05-21T23:21:48.680Z,4.68
2023-05-21T23:24:56.278Z,4.60
2023-05-21T23:28:05.180Z,4.50
2023-05-21T23:31:14.234Z,4.78
2023-05-21T23:34:20.078Z,4.63
2023-05-21T23:37:26.129Z,4.70
2023-05-21T23:40:31.292Z,4.05
2023-05-21T23:43:38.343Z,4.72
2023-05-21T23:46:46.309Z,4.63
2023-05-21T23:49:54.585Z,4.85
2023-05-21T23:53:03.081Z,4.55
2023-05-21T23:56:09.487Z,4.30
2023-05-21T23:59:17.582Z,4.90
